sensor_id;sensor_type;location;lat;lon;timestamp;pressure;altitude;pressure_sealevel;temperature;humidity
72086;BME280;64750;52.134;5.424;2024-02-23T00:02:13;98848.44;;;5.63;95.72
72086;BME280;64750;52.134;5.424;2024-02-23T00:04:40;98851.69;;;5.67;95.41
72086;BME280;64750;52.134;5.424;2024-02-23T00:07:07;98857.72;;;5.67;95.83
72086;BME280;64750;52.134;5.424;2024-02-23T00:09:34;98856.66;;;5.70;95.89
72086;BME280;64750;52.134;5.424;2024-02-23T00:12:00;98868.53;;;5.74;95.61
72086;BME280;64750;52.134;5.424;2024-02-23T00:14:27;98858.81;;;5.76;95.74
72086;BME280;64750;52.134;5.424;2024-02-23T00:16:54;98870.81;;;5.79;95.89
72086;BME280;64750;52.134;5.424;2024-02-23T00:19:20;98865.28;;;5.83;95.91
72086;BME280;64750;52.134;5.424;2024-02-23T00:21:47;98871.19;;;5.85;96.20
72086;BME280;64750;52.134;5.424;2024-02-23T00:24:17;98875.22;;;5.89;95.98
72086;BME280;64750;52.134;5.424;2024-02-23T00:26:43;98873.25;;;5.93;96.29
72086;BME280;64750;52.134;5.424;2024-02-23T00:29:10;98884.41;;;5.95;96.35
72086;BME280;64750;52.134;5.424;2024-02-23T00:31:38;98887.53;;;6.00;96.48
72086;BME280;64750;52.134;5.424;2024-02-23T00:34:07;98881.47;;;6.00;96.49
72086;BME280;64750;52.134;5.424;2024-02-23T00:36:41;98885.56;;;6.04;96.63
72086;BME280;64750;52.134;5.424;2024-02-23T00:39:10;98888.75;;;6.07;96.92
72086;BME280;64750;52.134;5.424;2024-02-23T00:41:37;98886.97;;;6.08;97.28
72086;BME280;64750;52.134;5.424;2024-02-23T00:44:03;98897.41;;;6.08;97.50
72086;BME280;64750;52.134;5.424;2024-02-23T00:46:30;98892.19;;;6.08;97.59
72086;BME280;64750;52.134;5.424;2024-02-23T00:48:57;98901.69;;;6.09;97.89
72086;BME280;64750;52.134;5.424;2024-02-23T00:51:23;98906.19;;;6.07;98.07
72086;BME280;64750;52.134;5.424;2024-02-23T00:53:50;98906.91;;;6.09;97.94
72086;BME280;64750;52.134;5.424;2024-02-23T00:56:17;98904.50;;;6.06;98.02
72086;BME280;64750;52.134;5.424;2024-02-23T00:58:44;98907.00;;;6.07;98.19
72086;BME280;64750;52.134;5.424;2024-02-23T01:01:10;98906.19;;;6.07;98.05
72086;BME280;64750;52.134;5.424;2024-02-23T01:03:37;98920.16;;;6.06;97.34
72086;BME280;64750;52.134;5.424;2024-02-23T01:06:04;98917.34;;;6.09;97.48
72086;BME280;64750;52.134;5.424;2024-02-23T01:08:30;98925.59;;;6.03;96.83
72086;BME280;64750;52.134;5.424;2024-02-23T01:10:58;98947.53;;;6.00;96.39
72086;BME280;64750;52.134;5.424;2024-02-23T01:13:24;98957.53;;;5.94;96.56
72086;BME280;64750;52.134;5.424;2024-02-23T01:15:51;98957.84;;;5.89;96.14
72086;BME280;64750;52.134;5.424;2024-02-23T01:18:18;98951.75;;;5.77;95.29
72086;BME280;64750;52.134;5.424;2024-02-23T01:20:44;98959.13;;;5.70;95.01
72086;BME280;64750;52.134;5.424;2024-02-23T01:23:11;98965.19;;;5.71;95.14
72086;BME280;64750;52.134;5.424;2024-02-23T01:25:37;98963.75;;;5.67;94.90
72086;BME280;64750;52.134;5.424;2024-02-23T01:28:04;98978.66;;;5.65;94.37
72086;BME280;64750;52.134;5.424;2024-02-23T01:30:30;98960.22;;;5.55;93.74
72086;BME280;64750;52.134;5.424;2024-02-23T01:32:57;98979.50;;;5.52;93.75
72086;BME280;64750;52.134;5.424;2024-02-23T01:35:23;98989.72;;;5.55;93.92
72086;BME280;64750;52.134;5.424;2024-02-23T01:37:50;99000.84;;;5.57;94.12
72086;BME280;64750;52.134;5.424;2024-02-23T01:40:16;99008.78;;;5.56;94.18
72086;BME280;64750;52.134;5.424;2024-02-23T01:42:43;98997.44;;;5.57;95.10
72086;BME280;64750;52.134;5.424;2024-02-23T01:45:09;98973.84;;;5.58;95.72
72086;BME280;64750;52.134;5.424;2024-02-23T01:47:36;98985.72;;;5.63;95.85
72086;BME280;64750;52.134;5.424;2024-02-23T01:50:03;98991.69;;;5.65;96.56
72086;BME280;64750;52.134;5.424;2024-02-23T01:52:29;99007.53;;;5.62;96.79
72086;BME280;64750;52.134;5.424;2024-02-23T01:54:56;99023.25;;;5.60;97.43
72086;BME280;64750;52.134;5.424;2024-02-23T01:57:23;99013.06;;;5.70;98.34
72086;BME280;64750;52.134;5.424;2024-02-23T02:00:11;99015.78;;;5.68;98.65
72086;BME280;64750;52.134;5.424;2024-02-23T02:02:39;99013.06;;;5.70;99.02
72086;BME280;64750;52.134;5.424;2024-02-23T02:05:06;99017.22;;;5.72;99.05
72086;BME280;64750;52.134;5.424;2024-02-23T02:07:34;99021.59;;;5.72;99.05
72086;BME280;64750;52.134;5.424;2024-02-23T02:10:00;99027.63;;;5.72;99.26
72086;BME280;64750;52.134;5.424;2024-02-23T02:12:27;99021.50;;;5.73;99.15
72086;BME280;64750;52.134;5.424;2024-02-23T02:14:54;99029.31;;;5.73;99.08
72086;BME280;64750;52.134;5.424;2024-02-23T02:17:21;99028.50;;;5.73;99.25
72086;BME280;64750;52.134;5.424;2024-02-23T02:19:48;99025.88;;;5.73;99.59
72086;BME280;64750;52.134;5.424;2024-02-23T02:22:14;99029.50;;;5.70;99.18
72086;BME280;64750;52.134;5.424;2024-02-23T02:24:41;99031.41;;;5.68;98.73
72086;BME280;64750;52.134;5.424;2024-02-23T02:27:10;99015.88;;;5.67;98.60
72086;BME280;64750;52.134;5.424;2024-02-23T02:29:36;99025.34;;;5.68;98.85
72086;BME280;64750;52.134;5.424;2024-02-23T02:32:03;99030.56;;;5.68;98.79
72086;BME280;64750;52.134;5.424;2024-02-23T02:34:30;99030.56;;;5.68;98.50
72086;BME280;64750;52.134;5.424;2024-02-23T02:36:56;99032.44;;;5.66;98.35
72086;BME280;64750;52.134;5.424;2024-02-23T02:39:23;99025.56;;;5.65;98.33
72086;BME280;64750;52.134;5.424;2024-02-23T02:41:49;99033.59;;;5.62;97.75
72086;BME280;64750;52.134;5.424;2024-02-23T02:44:16;99039.13;;;5.57;97.54
72086;BME280;64750;52.134;5.424;2024-02-23T02:46:42;99037.34;;;5.57;97.54
72086;BME280;64750;52.134;5.424;2024-02-23T02:49:09;99037.34;;;5.57;97.09
72086;BME280;64750;52.134;5.424;2024-02-23T02:51:35;99050.38;;;5.57;96.87
72086;BME280;64750;52.134;5.424;2024-02-23T02:54:02;99043.72;;;5.53;96.99
72086;BME280;64750;52.134;5.424;2024-02-23T02:56:29;99047.97;;;5.54;97.03
72086;BME280;64750;52.134;5.424;2024-02-23T02:58:55;99048.81;;;5.55;96.95
72086;BME280;64750;52.134;5.424;2024-02-23T03:01:22;99039.25;;;5.55;96.59
72086;BME280;64750;52.134;5.424;2024-02-23T03:03:49;99054.66;;;5.58;96.48
72086;BME280;64750;52.134;5.424;2024-02-23T03:06:15;99053.94;;;5.56;96.38
72086;BME280;64750;52.134;5.424;2024-02-23T03:08:42;99051.34;;;5.56;95.82
72086;BME280;64750;52.134;5.424;2024-02-23T03:11:09;99059.97;;;5.57;96.00
72086;BME280;64750;52.134;5.424;2024-02-23T03:13:35;99055.59;;;5.57;95.88
72086;BME280;64750;52.134;5.424;2024-02-23T03:16:02;99066.97;;;5.56;95.64
72086;BME280;64750;52.134;5.424;2024-02-23T03:18:28;99065.47;;;5.52;95.49
72086;BME280;64750;52.134;5.424;2024-02-23T03:20:55;99069.97;;;5.50;95.45
72086;BME280;64750;52.134;5.424;2024-02-23T03:23:21;99069.97;;;5.50;95.33
72086;BME280;64750;52.134;5.424;2024-02-23T03:25:48;99071.44;;;5.41;95.37
72086;BME280;64750;52.134;5.424;2024-02-23T03:28:14;99067.78;;;5.44;95.67
72086;BME280;64750;52.134;5.424;2024-02-23T03:30:41;99062.47;;;5.46;95.58
72086;BME280;64750;52.134;5.424;2024-02-23T03:33:07;99071.31;;;5.43;95.29
72086;BME280;64750;52.134;5.424;2024-02-23T03:35:34;99075.91;;;5.39;95.27
72086;BME280;64750;52.134;5.424;2024-02-23T03:38:01;99081.34;;;5.36;95.08
72086;BME280;64750;52.134;5.424;2024-02-23T03:40:27;99081.34;;;5.36;95.02
72086;BME280;64750;52.134;5.424;2024-02-23T03:42:54;99074.56;;;5.34;94.78
72086;BME280;64750;52.134;5.424;2024-02-23T03:45:20;99084.75;;;5.37;94.86
72086;BME280;64750;52.134;5.424;2024-02-23T03:47:47;99097.88;;;5.35;95.03
72086;BME280;64750;52.134;5.424;2024-02-23T03:50:13;99098.41;;;5.28;94.63
72086;BME280;64750;52.134;5.424;2024-02-23T03:52:40;99096.53;;;5.30;94.96
72086;BME280;64750;52.134;5.424;2024-02-23T03:55:07;99096.31;;;5.33;94.99
72086;BME280;64750;52.134;5.424;2024-02-23T03:57:33;99097.19;;;5.33;95.04
72086;BME280;64750;52.134;5.424;2024-02-23T04:00:00;99100.50;;;5.35;95.25
72086;BME280;64750;52.134;5.424;2024-02-23T04:02:26;99088.50;;;5.33;95.19
72086;BME280;64750;52.134;5.424;2024-02-23T04:04:53;99091.00;;;5.34;95.13
72086;BME280;64750;52.134;5.424;2024-02-23T04:07:20;99090.41;;;5.31;94.99
72086;BME280;64750;52.134;5.424;2024-02-23T04:09:47;99086.94;;;5.30;95.08
72086;BME280;64750;52.134;5.424;2024-02-23T04:12:19;99099.16;;;5.30;95.20
72086;BME280;64750;52.134;5.424;2024-02-23T04:14:46;99099.25;;;5.28;94.77
72086;BME280;64750;52.134;5.424;2024-02-23T04:17:12;99096.00;;;5.24;94.62
72086;BME280;64750;52.134;5.424;2024-02-23T04:19:40;99104.53;;;5.26;94.95
72086;BME280;64750;52.134;5.424;2024-02-23T04:22:07;99106.44;;;5.24;94.80
72086;BME280;64750;52.134;5.424;2024-02-23T04:24:38;99109.75;;;5.26;94.91
72086;BME280;64750;52.134;5.424;2024-02-23T04:27:05;99113.94;;;5.29;94.87
72086;BME280;64750;52.134;5.424;2024-02-23T04:29:32;99116.94;;;5.23;94.68
72086;BME280;64750;52.134;5.424;2024-02-23T04:32:00;99117.78;;;5.23;94.76
72086;BME280;64750;52.134;5.424;2024-02-23T04:34:27;99117.78;;;5.23;94.78
72086;BME280;64750;52.134;5.424;2024-02-23T04:36:54;99118.59;;;5.24;94.77
72086;BME280;64750;52.134;5.424;2024-02-23T04:39:21;99121.03;;;5.27;95.05
72086;BME280;64750;52.134;5.424;2024-02-23T04:41:48;99118.50;;;5.25;94.95
72086;BME280;64750;52.134;5.424;2024-02-23T04:44:14;99123.91;;;5.22;94.84
72086;BME280;64750;52.134;5.424;2024-02-23T04:46:40;99135.28;;;5.21;94.96
72086;BME280;64750;52.134;5.424;2024-02-23T04:49:07;99133.69;;;5.19;94.62
72086;BME280;64750;52.134;5.424;2024-02-23T04:51:33;99136.31;;;5.19;94.88
72086;BME280;64750;52.134;5.424;2024-02-23T04:54:00;99144.22;;;5.17;94.92
72086;BME280;64750;52.134;5.424;2024-02-23T04:56:26;99142.44;;;5.18;94.86
72086;BME280;64750;52.134;5.424;2024-02-23T04:58:53;99136.94;;;5.22;95.00
72086;BME280;64750;52.134;5.424;2024-02-23T05:01:19;99152.34;;;5.25;95.18
72086;BME280;64750;52.134;5.424;2024-02-23T05:03:46;99147.06;;;5.27;95.31
72086;BME280;64750;52.134;5.424;2024-02-23T05:06:13;99140.81;;;5.30;95.27
72086;BME280;64750;52.134;5.424;2024-02-23T05:08:39;99145.41;;;5.26;95.15
72086;BME280;64750;52.134;5.424;2024-02-23T05:11:07;99140.28;;;5.24;94.89
72086;BME280;64750;52.134;5.424;2024-02-23T05:13:33;99144.75;;;5.22;95.07
72086;BME280;64750;52.134;5.424;2024-02-23T05:16:00;99144.75;;;5.22;95.13
72086;BME280;64750;52.134;5.424;2024-02-23T05:18:26;99144.53;;;5.25;95.08
72086;BME280;64750;52.134;5.424;2024-02-23T05:20:53;99128.00;;;5.26;95.15
72086;BME280;64750;52.134;5.424;2024-02-23T05:23:20;99137.69;;;5.24;95.30
72086;BME280;64750;52.134;5.424;2024-02-23T05:25:47;99136.00;;;5.23;95.20
72086;BME280;64750;52.134;5.424;2024-02-23T05:28:13;99137.69;;;5.24;95.07
72086;BME280;64750;52.134;5.424;2024-02-23T05:30:40;99134.75;;;5.29;95.21
72086;BME280;64750;52.134;5.424;2024-02-23T05:33:07;99135.63;;;5.30;95.20
72086;BME280;64750;52.134;5.424;2024-02-23T05:35:34;99146.69;;;5.33;94.96
72086;BME280;64750;52.134;5.424;2024-02-23T05:38:01;99145.81;;;5.33;95.05
72086;BME280;64750;52.134;5.424;2024-02-23T05:40:27;99138.84;;;5.33;95.18
72086;BME280;64750;52.134;5.424;2024-02-23T05:42:54;99136.16;;;5.35;94.96
72086;BME280;64750;52.134;5.424;2024-02-23T05:45:21;99144.78;;;5.35;94.71
72086;BME280;64750;52.134;5.424;2024-02-23T05:47:48;99136.16;;;5.35;95.09
72086;BME280;64750;52.134;5.424;2024-02-23T05:50:15;99151.88;;;5.33;95.02
72086;BME280;64750;52.134;5.424;2024-02-23T05:52:42;99149.34;;;5.32;94.83
72086;BME280;64750;52.134;5.424;2024-02-23T05:55:09;99142.28;;;5.34;94.58
72086;BME280;64750;52.134;5.424;2024-02-23T05:57:35;99136.03;;;5.36;94.67
72086;BME280;64750;52.134;5.424;2024-02-23T06:00:02;99139.56;;;5.35;94.61
72086;BME280;64750;52.134;5.424;2024-02-23T06:02:28;99137.72;;;5.37;94.71
72086;BME280;64750;52.134;5.424;2024-02-23T06:04:55;99137.81;;;5.36;94.62
72086;BME280;64750;52.134;5.424;2024-02-23T06:07:22;99136.88;;;5.37;94.30
72086;BME280;64750;52.134;5.424;2024-02-23T06:09:55;99140.22;;;5.39;94.19
72086;BME280;64750;52.134;5.424;2024-02-23T06:12:22;99135.66;;;5.42;94.34
72086;BME280;64750;52.134;5.424;2024-02-23T06:14:50;99143.34;;;5.44;94.08
72086;BME280;64750;52.134;5.424;2024-02-23T06:17:17;99144.16;;;5.45;94.04
72086;BME280;64750;52.134;5.424;2024-02-23T06:19:44;99143.34;;;5.44;94.00
72086;BME280;64750;52.134;5.424;2024-02-23T06:22:10;99141.50;;;5.46;93.87
72086;BME280;64750;52.134;5.424;2024-02-23T06:24:38;99148.34;;;5.47;93.63
72086;BME280;64750;52.134;5.424;2024-02-23T06:27:05;99142.31;;;5.47;93.72
72086;BME280;64750;52.134;5.424;2024-02-23T06:29:31;99147.41;;;5.48;93.67
72086;BME280;64750;52.134;5.424;2024-02-23T06:31:58;99152.44;;;5.51;93.51
72086;BME280;64750;52.134;5.424;2024-02-23T06:34:24;99148.06;;;5.52;93.34
72086;BME280;64750;52.134;5.424;2024-02-23T06:36:51;99155.03;;;5.51;93.34
72086;BME280;64750;52.134;5.424;2024-02-23T06:39:18;99160.44;;;5.48;92.63
72086;BME280;64750;52.134;5.424;2024-02-23T06:41:44;99160.66;;;5.45;92.56
72086;BME280;64750;52.134;5.424;2024-02-23T06:44:11;99170.97;;;5.47;91.90
72086;BME280;64750;52.134;5.424;2024-02-23T06:46:38;99165.75;;;5.47;91.85
72086;BME280;64750;52.134;5.424;2024-02-23T06:49:04;99162.13;;;5.49;91.73
72086;BME280;64750;52.134;5.424;2024-02-23T06:51:31;99161.91;;;5.52;91.52
72086;BME280;64750;52.134;5.424;2024-02-23T06:53:58;99157.53;;;5.53;91.44
72086;BME280;64750;52.134;5.424;2024-02-23T06:56:24;99166.00;;;5.56;91.58
72086;BME280;64750;52.134;5.424;2024-02-23T06:58:51;99161.72;;;5.55;91.13
72086;BME280;64750;52.134;5.424;2024-02-23T07:01:20;99159.00;;;5.57;91.23
72086;BME280;64750;52.134;5.424;2024-02-23T07:03:47;99154.63;;;5.57;91.35
72086;BME280;64750;52.134;5.424;2024-02-23T07:06:17;99157.97;;;5.59;91.23
72086;BME280;64750;52.134;5.424;2024-02-23T07:08:45;99152.75;;;5.59;91.48
72086;BME280;64750;52.134;5.424;2024-02-23T07:11:12;99154.44;;;5.61;91.17
72086;BME280;64750;52.134;5.424;2024-02-23T07:13:42;99154.63;;;5.57;90.98
72086;BME280;64750;52.134;5.424;2024-02-23T07:16:09;99148.38;;;5.60;91.19
72086;BME280;64750;52.134;5.424;2024-02-23T07:18:35;99161.31;;;5.62;91.04
72086;BME280;64750;52.134;5.424;2024-02-23T07:21:02;99162.25;;;5.61;90.83
72086;BME280;64750;52.134;5.424;2024-02-23T07:23:28;99164.84;;;5.61;90.89
72086;BME280;64750;52.134;5.424;2024-02-23T07:25:55;99164.63;;;5.64;91.00
72086;BME280;64750;52.134;5.424;2024-02-23T07:28:22;99152.34;;;5.66;90.60
72086;BME280;64750;52.134;5.424;2024-02-23T07:30:49;99161.09;;;5.65;90.22
72086;BME280;64750;52.134;5.424;2024-02-23T07:33:16;99153.28;;;5.65;90.37
72086;BME280;64750;52.134;5.424;2024-02-23T07:35:42;99163.50;;;5.68;90.32
72086;BME280;64750;52.134;5.424;2024-02-23T07:38:09;99154.75;;;5.69;90.40
72086;BME280;64750;52.134;5.424;2024-02-23T07:40:35;99147.78;;;5.69;90.39
72086;BME280;64750;52.134;5.424;2024-02-23T07:43:02;99148.59;;;5.70;90.70
72086;BME280;64750;52.134;5.424;2024-02-23T07:45:28;99145.88;;;5.71;90.55
72086;BME280;64750;52.134;5.424;2024-02-23T07:47:55;99134.63;;;5.71;90.43
72086;BME280;64750;52.134;5.424;2024-02-23T07:50:21;99128.25;;;5.75;90.72
72086;BME280;64750;52.134;5.424;2024-02-23T07:52:48;99127.97;;;5.80;90.87
72086;BME280;64750;52.134;5.424;2024-02-23T07:55:14;99136.59;;;5.80;90.78
72086;BME280;64750;52.134;5.424;2024-02-23T07:57:43;99137.53;;;5.79;90.57
72086;BME280;64750;52.134;5.424;2024-02-23T08:00:09;99124.41;;;5.81;90.22
72086;BME280;64750;52.134;5.424;2024-02-23T08:02:36;99126.19;;;5.80;89.81
72086;BME280;64750;52.134;5.424;2024-02-23T08:05:03;99121.91;;;5.79;89.70
72086;BME280;64750;52.134;5.424;2024-02-23T08:07:30;99120.13;;;5.80;89.17
72086;BME280;64750;52.134;5.424;2024-02-23T08:09:57;99124.31;;;5.82;89.46
72086;BME280;64750;52.134;5.424;2024-02-23T08:12:24;99123.69;;;5.79;89.15
72086;BME280;64750;52.134;5.424;2024-02-23T08:14:50;99125.34;;;5.80;88.98
72086;BME280;64750;52.134;5.424;2024-02-23T08:17:19;99119.22;;;5.81;89.00
72086;BME280;64750;52.134;5.424;2024-02-23T08:19:46;99137.25;;;5.84;88.99
72086;BME280;64750;52.134;5.424;2024-02-23T08:22:13;99121.47;;;5.85;88.92
72086;BME280;64750;52.134;5.424;2024-02-23T08:24:41;99112.63;;;5.88;89.06
72086;BME280;64750;52.134;5.424;2024-02-23T08:27:07;99110.22;;;5.85;88.92
72086;BME280;64750;52.134;5.424;2024-02-23T08:29:37;99117.19;;;5.84;88.35
72086;BME280;64750;52.134;5.424;2024-02-23T08:32:04;99117.00;;;5.87;88.40
72086;BME280;64750;52.134;5.424;2024-02-23T08:34:31;99117.00;;;5.87;88.42
72086;BME280;64750;52.134;5.424;2024-02-23T08:36:58;99116.06;;;5.88;87.99
72086;BME280;64750;52.134;5.424;2024-02-23T08:39:24;99113.56;;;5.87;88.00
72086;BME280;64750;52.134;5.424;2024-02-23T08:41:51;99098.75;;;5.87;88.36
72086;BME280;64750;52.134;5.424;2024-02-23T08:44:18;99095.22;;;5.88;88.05
72086;BME280;64750;52.134;5.424;2024-02-23T08:46:44;99103.75;;;5.90;87.90
72086;BME280;64750;52.134;5.424;2024-02-23T08:49:11;99103.75;;;5.90;87.95
72086;BME280;64750;52.134;5.424;2024-02-23T08:51:37;99095.94;;;5.90;87.92
72086;BME280;64750;52.134;5.424;2024-02-23T08:54:04;99090.00;;;5.88;87.79
72086;BME280;64750;52.134;5.424;2024-02-23T08:56:36;99096.97;;;5.88;87.71
72086;BME280;64750;52.134;5.424;2024-02-23T08:59:03;99117.72;;;5.89;88.36
72086;BME280;64750;52.134;5.424;2024-02-23T09:01:29;99103.97;;;5.87;89.24
72086;BME280;64750;52.134;5.424;2024-02-23T09:03:56;99103.97;;;5.87;89.75
72086;BME280;64750;52.134;5.424;2024-02-23T09:06:22;99105.53;;;5.90;90.29
72086;BME280;64750;52.134;5.424;2024-02-23T09:08:49;99105.66;;;5.88;90.25
72086;BME280;64750;52.134;5.424;2024-02-23T09:11:15;99109.19;;;5.87;89.97
72086;BME280;64750;52.134;5.424;2024-02-23T09:13:42;99105.13;;;5.83;89.66
72086;BME280;64750;52.134;5.424;2024-02-23T09:16:09;99113.66;;;5.85;90.03
72086;BME280;64750;52.134;5.424;2024-02-23T09:18:35;99119.81;;;5.84;90.28
72086;BME280;64750;52.134;5.424;2024-02-23T09:21:02;99119.00;;;5.84;90.30
72086;BME280;64750;52.134;5.424;2024-02-23T09:23:28;99123.38;;;5.83;90.61
72086;BME280;64750;52.134;5.424;2024-02-23T09:25:55;99110.34;;;5.83;90.76
72086;BME280;64750;52.134;5.424;2024-02-23T09:28:22;99117.19;;;5.84;90.32
72086;BME280;64750;52.134;5.424;2024-02-23T09:30:48;99123.91;;;5.88;90.42
72086;BME280;64750;52.134;5.424;2024-02-23T09:33:15;99127.34;;;5.89;90.28
72086;BME280;64750;52.134;5.424;2024-02-23T09:35:41;99125.34;;;5.93;90.53
72086;BME280;64750;52.134;5.424;2024-02-23T09:38:08;99128.91;;;5.91;90.55
72086;BME280;64750;52.134;5.424;2024-02-23T09:40:35;99127.22;;;5.90;90.54
72086;BME280;64750;52.134;5.424;2024-02-23T09:43:01;99114.91;;;5.93;90.39
72086;BME280;64750;52.134;5.424;2024-02-23T09:45:30;99116.69;;;5.92;90.72
72086;BME280;64750;52.134;5.424;2024-02-23T09:47:57;99135.78;;;5.93;90.98
72086;BME280;64750;52.134;5.424;2024-02-23T09:50:25;99135.66;;;5.94;90.98
72086;BME280;64750;52.134;5.424;2024-02-23T09:52:52;99133.81;;;5.96;91.40
72086;BME280;64750;52.134;5.424;2024-02-23T09:55:18;99134.63;;;5.97;91.29
72086;BME280;64750;52.134;5.424;2024-02-23T09:57:47;99155.50;;;5.97;91.30
72086;BME280;64750;52.134;5.424;2024-02-23T10:00:17;99144.31;;;5.95;91.39
72086;BME280;64750;52.134;5.424;2024-02-23T10:02:44;99148.59;;;5.96;91.46
72086;BME280;64750;52.134;5.424;2024-02-23T10:05:13;99154.38;;;6.01;91.81
72086;BME280;64750;52.134;5.424;2024-02-23T10:07:40;99146.44;;;6.02;92.07
72086;BME280;64750;52.134;5.424;2024-02-23T10:10:08;99151.47;;;6.05;91.94
72086;BME280;64750;52.134;5.424;2024-02-23T10:12:35;99151.13;;;6.10;92.06
72086;BME280;64750;52.134;5.424;2024-02-23T10:15:04;99156.03;;;6.15;91.73
72086;BME280;64750;52.134;5.424;2024-02-23T10:17:31;99157.81;;;6.14;91.63
72086;BME280;64750;52.134;5.424;2024-02-23T10:20:02;99159.38;;;6.17;91.83
72086;BME280;64750;52.134;5.424;2024-02-23T10:22:31;99161.88;;;6.18;92.06
72086;BME280;64750;52.134;5.424;2024-02-23T10:24:57;99154.88;;;6.19;91.77
72086;BME280;64750;52.134;5.424;2024-02-23T10:27:25;99157.41;;;6.20;91.54
72086;BME280;64750;52.134;5.424;2024-02-23T10:29:52;99159.91;;;6.22;91.60
72086;BME280;64750;52.134;5.424;2024-02-23T10:32:19;99162.41;;;6.23;91.56
72086;BME280;64750;52.134;5.424;2024-02-23T10:34:50;99160.72;;;6.22;91.36
72086;BME280;64750;52.134;5.424;2024-02-23T10:37:17;99183.50;;;6.20;91.58
72086;BME280;64750;52.134;5.424;2024-02-23T10:39:45;99179.09;;;6.21;91.29
72086;BME280;64750;52.134;5.424;2024-02-23T10:42:12;99174.69;;;6.21;91.56
72086;BME280;64750;52.134;5.424;2024-02-23T10:44:39;99184.31;;;6.21;91.58
72086;BME280;64750;52.134;5.424;2024-02-23T10:47:06;99194.75;;;6.21;91.75
72086;BME280;64750;52.134;5.424;2024-02-23T10:49:34;99190.34;;;6.21;91.83
72086;BME280;64750;52.134;5.424;2024-02-23T10:52:01;99189.41;;;6.22;92.43
72086;BME280;64750;52.134;5.424;2024-02-23T10:54:29;99192.03;;;6.22;92.80
72086;BME280;64750;52.134;5.424;2024-02-23T10:56:57;99204.97;;;6.24;92.53
72086;BME280;64750;52.134;5.424;2024-02-23T10:59:24;99204.97;;;6.24;91.89
72086;BME280;64750;52.134;5.424;2024-02-23T11:01:54;99204.03;;;6.25;92.10
72086;BME280;64750;52.134;5.424;2024-02-23T11:04:25;99205.59;;;6.28;91.93
72086;BME280;64750;52.134;5.424;2024-02-23T11:06:52;99196.59;;;6.32;91.73
72086;BME280;64750;52.134;5.424;2024-02-23T11:09:24;99208.31;;;6.39;91.61
72086;BME280;64750;52.134;5.424;2024-02-23T11:11:54;99201.91;;;6.43;92.11
72086;BME280;64750;52.134;5.424;2024-02-23T11:14:38;99217.28;;;6.48;91.60
72086;BME280;64750;52.134;5.424;2024-02-23T11:17:05;99209.31;;;6.49;91.23
72086;BME280;64750;52.134;5.424;2024-02-23T11:19:33;99205.66;;;6.52;90.68
72086;BME280;64750;52.134;5.424;2024-02-23T11:22:02;99203.88;;;6.52;90.45
72086;BME280;64750;52.134;5.424;2024-02-23T11:24:30;99204.41;;;6.57;90.47
72086;BME280;64750;52.134;5.424;2024-02-23T11:27:00;99219.75;;;6.62;90.81
72086;BME280;64750;52.134;5.424;2024-02-23T11:29:34;99211.72;;;6.65;90.02
72086;BME280;64750;52.134;5.424;2024-02-23T11:32:03;99204.47;;;6.69;90.43
72086;BME280;64750;52.134;5.424;2024-02-23T11:34:30;99205.09;;;6.72;90.02
72086;BME280;64750;52.134;5.424;2024-02-23T11:36:57;99194.56;;;6.74;89.99
72086;BME280;64750;52.134;5.424;2024-02-23T11:39:26;99197.59;;;6.81;90.47
72086;BME280;64750;52.134;5.424;2024-02-23T11:41:53;99196.31;;;6.86;90.26
72086;BME280;64750;52.134;5.424;2024-02-23T11:44:19;99204.03;;;6.88;89.29
72086;BME280;64750;52.134;5.424;2024-02-23T11:46:46;99202.03;;;6.92;89.18
72086;BME280;64750;52.134;5.424;2024-02-23T11:49:16;99222.59;;;6.96;89.29
72086;BME280;64750;52.134;5.424;2024-02-23T11:51:42;99212.75;;;7.00;89.16
72086;BME280;64750;52.134;5.424;2024-02-23T11:54:09;99210.88;;;7.02;88.61
72086;BME280;64750;52.134;5.424;2024-02-23T11:56:38;99213.50;;;7.02;88.33
72086;BME280;64750;52.134;5.424;2024-02-23T11:59:07;99218.72;;;7.02;88.05
72086;BME280;64750;52.134;5.424;2024-02-23T12:01:34;99215.28;;;7.01;87.95
72086;BME280;64750;52.134;5.424;2024-02-23T12:04:02;99228.22;;;7.03;88.21
72086;BME280;64750;52.134;5.424;2024-02-23T12:06:29;99223.00;;;7.03;88.35
72086;BME280;64750;52.134;5.424;2024-02-23T12:08:57;99223.75;;;7.05;87.54
72086;BME280;64750;52.134;5.424;2024-02-23T12:11:24;99220.38;;;7.03;87.91
72086;BME280;64750;52.134;5.424;2024-02-23T12:13:51;99222.16;;;7.02;87.56
72086;BME280;64750;52.134;5.424;2024-02-23T12:16:18;99229.16;;;7.02;87.52
72086;BME280;64750;52.134;5.424;2024-02-23T12:18:44;99217.88;;;7.01;87.25
72086;BME280;64750;52.134;5.424;2024-02-23T12:21:11;99221.13;;;7.05;87.40
72086;BME280;64750;52.134;5.424;2024-02-23T12:23:49;99212.44;;;7.04;87.06
72086;BME280;64750;52.134;5.424;2024-02-23T12:26:17;99215.91;;;7.05;86.66
72086;BME280;64750;52.134;5.424;2024-02-23T12:28:45;99224.44;;;7.07;87.01
72086;BME280;64750;52.134;5.424;2024-02-23T12:31:15;99219.00;;;7.10;86.21
72086;BME280;64750;52.134;5.424;2024-02-23T12:33:41;99231.63;;;7.16;86.29
72086;BME280;64750;52.134;5.424;2024-02-23T12:36:10;99222.63;;;7.20;86.30
72086;BME280;64750;52.134;5.424;2024-02-23T12:38:36;99225.84;;;7.24;86.13
72086;BME280;64750;52.134;5.424;2024-02-23T12:41:04;99227.50;;;7.25;86.83
72086;BME280;64750;52.134;5.424;2024-02-23T12:43:30;99231.69;;;7.28;86.31
72086;BME280;64750;52.134;5.424;2024-02-23T12:45:57;99238.81;;;7.26;85.72
72086;BME280;64750;52.134;5.424;2024-02-23T12:48:23;99230.84;;;7.27;85.53
72086;BME280;64750;52.134;5.424;2024-02-23T12:50:52;99239.41;;;7.29;85.05
72086;BME280;64750;52.134;5.424;2024-02-23T12:53:38;99240.13;;;7.31;85.08
72086;BME280;64750;52.134;5.424;2024-02-23T12:56:14;99241.06;;;7.30;84.60
72086;BME280;64750;52.134;5.424;2024-02-23T12:58:45;99237.63;;;7.30;84.25
72086;BME280;64750;52.134;5.424;2024-02-23T13:01:14;99241.94;;;7.31;84.75
72086;BME280;64750;52.134;5.424;2024-02-23T13:03:41;99249.66;;;7.32;84.71
72086;BME280;64750;52.134;5.424;2024-02-23T13:06:08;99248.34;;;7.38;84.58
72086;BME280;64750;52.134;5.424;2024-02-23T13:08:34;99240.31;;;7.41;84.29
72086;BME280;64750;52.134;5.424;2024-02-23T13:11:01;99248.75;;;7.45;84.06